createdAt,value
2019-05-09T00:00:23.463Z,0.73
2019-05-09T00:02:54.028Z,1.00
2019-05-09T00:05:25.264Z,0.80
2019-05-09T00:07:53.195Z,0.70
2019-05-09T00:10:37.555Z,0.70
2019-05-09T00:12:53.913Z,0.70
2019-05-09T00:15:24.081Z,0.90
2019-05-09T00:17:53.273Z,1.00
2019-05-09T00:20:29.054Z,0.60
2019-05-09T00:22:57.499Z,0.70
2019-05-09T00:25:25.946Z,0.60
2019-05-09T00:27:54.495Z,0.80
2019-05-09T00:30:24.560Z,0.80
2019-05-09T00:32:53.466Z,0.73
2019-05-09T00:35:23.587Z,0.90
2019-05-09T00:37:53.729Z,1.10
2019-05-09T00:40:23.917Z,1.00
2019-05-09T00:42:54.030Z,0.80
2019-05-09T00:45:28.006Z,1.10
2019-05-09T00:47:56.443Z,0.73
2019-05-09T00:50:24.883Z,0.93
2019-05-09T00:52:53.829Z,0.80
2019-05-09T00:55:23.932Z,0.87
2019-05-09T00:57:53.467Z,0.97
2019-05-09T01:00:24.094Z,1.13
2019-05-09T01:02:54.160Z,1.40
2019-05-09T01:05:23.933Z,1.57
2019-05-09T01:07:53.784Z,1.30
2019-05-09T01:10:23.753Z,1.60
2019-05-09T01:12:54.253Z,1.60
2019-05-09T01:15:23.991Z,1.87
2019-05-09T01:17:53.653Z,2.30
2019-05-09T01:20:24.187Z,1.87
2019-05-09T01:22:54.086Z,2.27
2019-05-09T01:25:24.044Z,2.40
2019-05-09T01:27:53.893Z,2.63
2019-05-09T01:30:24.147Z,2.20
2019-05-09T01:33:10.842Z,2.33
2019-05-09T01:35:39.275Z,2.60
2019-05-09T01:38:07.719Z,2.37
2019-05-09T01:40:36.151Z,2.70
2019-05-09T01:43:04.686Z,2.77
2019-05-09T01:45:34.256Z,3.10
2019-05-09T01:48:03.386Z,2.40
2019-05-09T01:50:33.902Z,2.77
2019-05-09T01:53:03.998Z,3.53
2019-05-09T01:55:49.966Z,3.27
2019-05-09T01:58:18.429Z,4.40
2019-05-09T02:00:46.863Z,3.97
2019-05-09T02:03:15.314Z,3.70
2019-05-09T02:05:43.755Z,3.20
2019-05-09T02:08:14.280Z,3.20
2019-05-09T02:10:44.201Z,3.67
2019-05-09T02:13:13.678Z,2.83
2019-05-09T02:16:00.030Z,2.90
2019-05-09T02:18:30.119Z,2.90
2019-05-09T02:20:58.566Z,2.60
2019-05-09T02:23:27.190Z,2.87
2019-05-09T02:25:55.631Z,2.50
2019-05-09T02:28:24.083Z,2.27
2019-05-09T02:30:55.025Z,3.30
2019-05-09T02:33:25.039Z,2.60
2019-05-09T02:36:00.807Z,2.23
2019-05-09T02:38:23.236Z,2.17
2019-05-09T02:40:51.711Z,2.00
2019-05-09T02:43:20.153Z,2.40
2019-05-09T02:45:52.824Z,2.43
2019-05-09T02:48:20.446Z,2.80
2019-05-09T02:50:48.892Z,1.97
2019-05-09T02:53:18.907Z,2.87
2019-05-09T02:55:49.541Z,2.77
2019-05-09T02:58:20.566Z,2.70
2019-05-09T03:00:53.747Z,2.90
2019-05-09T03:03:23.820Z,2.90
2019-05-09T03:05:52.347Z,3.00
2019-05-09T03:08:20.770Z,2.40
2019-05-09T03:10:49.439Z,3.10
2019-05-09T03:13:19.054Z,2.63
2019-05-09T03:15:49.623Z,2.23
2019-05-09T03:18:18.515Z,3.47
2019-05-09T03:20:51.636Z,2.60
2019-05-09T03:23:20.147Z,2.97
2019-05-09T03:25:48.674Z,3.00
2019-05-09T03:28:28.431Z,2.87
2019-05-09T03:30:59.435Z,3.53
2019-05-09T03:33:29.611Z,3.60
2019-05-09T03:35:58.246Z,4.30
2019-05-09T03:38:28.428Z,3.33
2019-05-09T03:40:58.046Z,4.90
2019-05-09T03:43:27.465Z,4.50
2019-05-09T03:46:00.450Z,3.97
2019-05-09T03:48:47.703Z,4.10
2019-05-09T03:51:15.526Z,4.23
2019-05-09T03:53:43.962Z,5.30
2019-05-09T03:56:30.128Z,5.07
2019-05-09T03:58:58.555Z,4.87
2019-05-09T04:01:28.034Z,4.80
2019-05-09T04:03:58.406Z,4.80
2019-05-09T04:06:28.201Z,4.60
2019-05-09T04:08:58.531Z,4.47
2019-05-09T04:11:27.659Z,5.50
2019-05-09T04:13:58.561Z,5.07
2019-05-09T04:16:27.692Z,4.80
2019-05-09T04:18:58.170Z,5.37
2019-05-09T04:21:28.014Z,4.70
2019-05-09T04:23:58.504Z,4.50
2019-05-09T04:26:40.453Z,4.47
2019-05-09T04:29:08.890Z,4.60
2019-05-09T04:31:38.413Z,4.47
2019-05-09T04:34:09.401Z,4.60
2019-05-09T04:36:39.879Z,4.50
2019-05-09T04:39:12.584Z,4.30
2019-05-09T04:41:40.382Z,3.97
2019-05-09T04:44:16.786Z,4.40
2019-05-09T04:46:40.632Z,4.10
2019-05-09T04:49:09.179Z,4.23
2019-05-09T04:51:39.303Z,3.67
2019-05-09T04:54:07.942Z,3.80
2019-05-09T04:56:38.278Z,3.03
2019-05-09T04:59:07.514Z,3.70
2019-05-09T05:01:47.745Z,3.00
2019-05-09T05:04:18.073Z,3.47
2019-05-09T05:06:47.801Z,3.80
2019-05-09T05:09:20.507Z,3.77
2019-05-09T05:11:49.085Z,2.93
2019-05-09T05:14:22.441Z,2.30
2019-05-09T05:16:53.823Z,3.30
2019-05-09T05:19:22.632Z,2.87
2019-05-09T05:21:51.147Z,3.27
2019-05-09T05:24:24.210Z,2.53
2019-05-09T05:26:52.735Z,3.10
2019-05-09T05:29:21.239Z,2.90
2019-05-09T05:31:50.564Z,3.93
2019-05-09T05:34:23.423Z,2.97
2019-05-09T05:36:51.874Z,3.27
2019-05-09T05:39:20.668Z,2.50
2019-05-09T05:41:49.278Z,2.00
2019-05-09T05:44:17.929Z,2.60
2019-05-09T05:46:58.524Z,2.70
2019-05-09T05:49:27.994Z,2.57
2019-05-09T05:51:57.668Z,2.37
2019-05-09T05:54:27.661Z,2.10
2019-05-09T05:56:57.800Z,1.97
2019-05-09T05:59:28.666Z,2.20
2019-05-09T06:01:58.324Z,2.60
2019-05-09T06:04:27.643Z,2.00
2019-05-09T06:06:58.644Z,2.20
2019-05-09T06:09:28.102Z,1.97
2019-05-09T06:11:57.714Z,2.40
2019-05-09T06:14:28.389Z,1.97
2019-05-09T06:16:58.806Z,1.40
2019-05-09T06:19:28.650Z,2.00
2019-05-09T06:21:57.450Z,2.33
2019-05-09T06:24:28.041Z,1.63
2019-05-09T06:26:58.539Z,2.07
2019-05-09T06:29:28.546Z,2.10
2019-05-09T06:31:58.442Z,2.73
2019-05-09T06:34:27.753Z,2.30
2019-05-09T06:36:58.616Z,2.00
2019-05-09T06:39:28.462Z,1.80
2019-05-09T06:41:57.510Z,2.20
2019-05-09T06:44:30.684Z,2.40
2019-05-09T06:47:15.558Z,2.23
2019-05-09T06:49:50.134Z,2.10
2019-05-09T06:52:18.664Z,2.10
2019-05-09T06:54:48.629Z,2.20
2019-05-09T06:57:18.646Z,2.03
2019-05-09T06:59:48.759Z,2.27
2019-05-09T07:02:19.024Z,1.87
2019-05-09T07:04:49.112Z,1.43
2019-05-09T07:07:28.097Z,1.40
2019-05-09T07:09:58.717Z,2.40
2019-05-09T07:12:27.479Z,2.40
2019-05-09T07:14:58.078Z,1.60
2019-05-09T07:17:31.837Z,2.20
2019-05-09T07:19:58.743Z,1.80
2019-05-09T07:22:28.264Z,2.00
2019-05-09T07:25:06.043Z,2.00
2019-05-09T07:27:33.106Z,1.50
2019-05-09T07:30:25.170Z,1.60
2019-05-09T07:33:04.183Z,1.47
2019-05-09T07:35:32.645Z,1.40
2019-05-09T07:38:01.094Z,1.70
2019-05-09T07:40:30.684Z,1.30
2019-05-09T07:42:59.398Z,1.30
2019-05-09T07:45:28.221Z,2.03
2019-05-09T07:47:58.420Z,1.30
2019-05-09T07:50:27.655Z,1.73
2019-05-09T07:52:58.115Z,2.10
2019-05-09T07:55:27.446Z,1.00
2019-05-09T07:57:58.743Z,1.10
2019-05-09T08:00:32.276Z,2.00
2019-05-09T08:03:00.790Z,1.50
2019-05-09T08:05:30.072Z,1.53
2019-05-09T08:07:58.753Z,1.33
2019-05-09T08:10:30.639Z,1.13
2019-05-09T08:12:58.503Z,1.20
2019-05-09T08:15:28.023Z,1.00
2019-05-09T08:17:59.062Z,1.27
2019-05-09T08:20:27.706Z,1.20
2019-05-09T08:23:00.678Z,2.17
2019-05-09T08:25:27.724Z,1.23
2019-05-09T08:27:58.558Z,1.30
2019-05-09T08:30:32.969Z,1.30
2019-05-09T08:32:56.787Z,1.20
2019-05-09T08:35:27.856Z,1.43
2019-05-09T08:37:58.026Z,1.70
2019-05-09T08:40:28.423Z,1.50
2019-05-09T08:42:58.505Z,2.10
2019-05-09T08:45:30.760Z,2.00
2019-05-09T08:47:57.721Z,1.73
2019-05-09T08:50:40.151Z,2.30
2019-05-09T08:53:08.651Z,1.40
2019-05-09T08:55:38.356Z,1.70
2019-05-09T08:58:08.065Z,1.00
2019-05-09T09:00:38.757Z,1.70
2019-05-09T09:03:08.042Z,2.10
2019-05-09T09:05:38.176Z,1.50
2019-05-09T09:08:08.272Z,1.90
2019-05-09T09:10:38.534Z,1.47
2019-05-09T09:13:08.954Z,1.90
2019-05-09T09:16:02.917Z,1.70
2019-05-09T09:18:08.577Z,1.70
2019-05-09T09:20:38.029Z,2.63
2019-05-09T09:23:08.969Z,1.73
2019-05-09T09:25:38.938Z,1.90
2019-05-09T09:28:08.781Z,2.23
2019-05-09T09:30:38.675Z,2.30
2019-05-09T09:33:10.118Z,2.03
2019-05-09T09:35:38.287Z,1.97
2019-05-09T09:38:09.102Z,2.33
2019-05-09T09:40:38.560Z,2.17
2019-05-09T09:43:09.304Z,1.90
2019-05-09T09:45:37.872Z,1.80
2019-05-09T09:48:08.938Z,1.70
2019-05-09T09:50:38.371Z,1.57
2019-05-09T09:53:08.840Z,1.67
2019-05-09T09:55:38.408Z,1.83
2019-05-09T09:58:08.276Z,1.87
2019-05-09T10:00:51.921Z,1.60
2019-05-09T10:03:20.437Z,1.57
2019-05-09T10:05:48.885Z,1.60
2019-05-09T10:08:18.108Z,1.53
2019-05-09T10:10:48.404Z,1.37
2019-05-09T10:13:18.533Z,1.93
2019-05-09T10:15:51.345Z,1.60
2019-05-09T10:18:24.363Z,1.83
2019-05-09T10:21:06.323Z,1.87
2019-05-09T10:23:34.878Z,1.63
2019-05-09T10:26:03.319Z,2.10
2019-05-09T10:28:31.814Z,1.80
2019-05-09T10:31:00.324Z,1.57
2019-05-09T10:33:29.366Z,2.37
2019-05-09T10:36:04.306Z,2.10
2019-05-09T10:38:28.128Z,2.20
2019-05-09T10:41:01.127Z,1.83
2019-05-09T10:43:38.434Z,1.70
2019-05-09T10:46:19.280Z,1.43
2019-05-09T10:48:49.723Z,1.93
2019-05-09T10:51:18.663Z,1.60
2019-05-09T10:53:48.177Z,1.70
2019-05-09T10:56:18.798Z,1.47
2019-05-09T10:58:48.200Z,1.80
2019-05-09T11:01:18.442Z,1.43
2019-05-09T11:03:48.217Z,1.10
2019-05-09T11:06:18.347Z,1.00
2019-05-09T11:08:47.811Z,1.10
2019-05-09T11:11:18.286Z,1.00
2019-05-09T11:13:48.255Z,1.40
2019-05-09T11:16:18.320Z,1.40
2019-05-09T11:18:48.275Z,0.90
2019-05-09T11:21:19.138Z,1.60
2019-05-09T11:23:48.827Z,1.10
2019-05-09T11:26:18.079Z,1.20
2019-05-09T11:28:46.883Z,1.27
2019-05-09T11:31:18.025Z,0.93
2019-05-09T11:33:48.144Z,1.70
2019-05-09T11:36:20.733Z,1.27
2019-05-09T11:38:49.075Z,0.97
2019-05-09T11:41:18.906Z,1.00
2019-05-09T11:43:48.582Z,1.40
2019-05-09T11:46:18.004Z,1.40
2019-05-09T11:48:46.903Z,1.50
2019-05-09T11:51:17.890Z,1.50
2019-05-09T11:53:48.317Z,1.60
2019-05-09T11:56:17.902Z,1.10
2019-05-09T11:58:48.148Z,1.17
2019-05-09T12:01:18.609Z,1.40
2019-05-09T12:03:49.865Z,1.10
2019-05-09T12:06:19.673Z,1.20
2019-05-09T12:08:48.297Z,1.30
2019-05-09T12:11:18.145Z,1.00
2019-05-09T12:13:48.510Z,1.13
2019-05-09T12:16:18.393Z,0.97
2019-05-09T12:18:48.928Z,1.00
2019-05-09T12:21:19.101Z,0.90
2019-05-09T12:23:48.791Z,0.90
2019-05-09T12:26:17.950Z,0.90
2019-05-09T12:28:48.258Z,0.90
2019-05-09T12:31:18.187Z,0.80
2019-05-09T12:33:48.431Z,0.90
2019-05-09T12:36:19.157Z,0.80
2019-05-09T12:38:49.790Z,0.80
2019-05-09T12:41:18.927Z,0.87
2019-05-09T12:43:47.723Z,0.70
2019-05-09T12:46:16.175Z,1.00
2019-05-09T12:48:44.637Z,0.50
2019-05-09T12:51:13.227Z,0.57
2019-05-09T12:53:41.818Z,0.50
2019-05-09T12:56:10.283Z,0.50
2019-05-09T12:58:38.750Z,0.50
2019-05-09T13:01:07.650Z,0.60
2019-05-09T13:03:38.232Z,0.50
2019-05-09T13:06:08.080Z,0.50
2019-05-09T13:08:38.544Z,0.60
2019-05-09T13:11:08.001Z,0.50
2019-05-09T13:13:40.659Z,0.50
2019-05-09T13:16:12.018Z,0.60
2019-05-09T13:19:00.217Z,0.60
2019-05-09T13:21:29.740Z,0.70
2019-05-09T13:23:58.819Z,0.70
2019-05-09T13:26:28.945Z,0.90
2019-05-09T13:28:58.932Z,0.70
2019-05-09T13:31:29.401Z,0.57
2019-05-09T13:33:58.393Z,0.60
2019-05-09T13:36:28.506Z,0.60
2019-05-09T13:39:04.181Z,0.50
2019-05-09T13:41:27.544Z,0.60
2019-05-09T13:43:59.204Z,0.60
2019-05-09T13:46:28.259Z,0.50
2019-05-09T13:49:08.323Z,0.60
2019-05-09T13:51:26.554Z,0.60
2019-05-09T13:53:55.114Z,0.60
2019-05-09T13:56:23.647Z,1.10
2019-05-09T13:58:52.159Z,0.50
2019-05-09T14:01:20.603Z,0.60
2019-05-09T14:03:49.275Z,0.70
2019-05-09T14:06:17.785Z,0.70
2019-05-09T14:08:48.951Z,0.70
2019-05-09T14:11:19.120Z,0.70
2019-05-09T14:13:48.757Z,0.50
2019-05-09T14:16:21.690Z,0.90
2019-05-09T14:18:48.614Z,0.80
2019-05-09T14:21:21.428Z,0.70
2019-05-09T14:24:00.856Z,0.73
2019-05-09T14:26:18.079Z,0.97
2019-05-09T14:28:48.888Z,0.90
2019-05-09T14:31:18.645Z,2.00
2019-05-09T14:33:47.740Z,0.73
2019-05-09T14:36:16.290Z,1.17
2019-05-09T14:38:44.824Z,1.10
2019-05-09T14:41:13.311Z,1.03
2019-05-09T14:43:41.750Z,1.10
2019-05-09T14:46:10.175Z,1.13
2019-05-09T14:48:38.656Z,1.20
2019-05-09T14:51:07.775Z,0.80
2019-05-09T14:53:38.879Z,0.80
2019-05-09T14:56:08.707Z,1.03
2019-05-09T14:58:38.779Z,1.00
2019-05-09T15:01:08.557Z,0.70
2019-05-09T15:03:38.954Z,1.00
2019-05-09T15:06:07.629Z,0.90
2019-05-09T15:08:38.115Z,0.90
2019-05-09T15:11:09.683Z,0.87
2019-05-09T15:13:36.520Z,0.73
2019-05-09T15:16:04.985Z,0.70
2019-05-09T15:18:33.421Z,0.60
2019-05-09T15:21:02.978Z,0.50
2019-05-09T15:23:31.495Z,0.50
2019-05-09T15:26:00.043Z,0.70
2019-05-09T15:28:29.162Z,0.53
2019-05-09T15:30:59.353Z,0.50
2019-05-09T15:33:28.002Z,0.60
2019-05-09T15:35:58.706Z,0.50
2019-05-09T15:38:28.747Z,0.50
2019-05-09T15:40:57.000Z,0.50
2019-05-09T15:43:25.655Z,0.50
2019-05-09T15:45:58.435Z,0.50
2019-05-09T15:48:27.503Z,0.60
2019-05-09T15:50:58.135Z,0.50
2019-05-09T15:53:27.803Z,0.40
2019-05-09T15:55:58.646Z,0.63
2019-05-09T15:58:28.713Z,0.50
2019-05-09T16:00:58.878Z,0.60
2019-05-09T16:03:27.847Z,0.50
2019-05-09T16:05:58.415Z,0.50
2019-05-09T16:08:28.734Z,0.40
2019-05-09T16:10:58.133Z,0.60
2019-05-09T16:13:28.508Z,0.60
2019-05-09T16:15:57.660Z,0.50
2019-05-09T16:18:28.643Z,0.50
2019-05-09T16:20:58.026Z,0.50
2019-05-09T16:23:29.047Z,0.50
2019-05-09T16:25:58.610Z,0.67
2019-05-09T16:28:27.310Z,0.50
2019-05-09T16:30:55.827Z,0.50
2019-05-09T16:33:24.324Z,0.50
2019-05-09T16:35:53.216Z,0.60
2019-05-09T16:38:21.688Z,0.67
2019-05-09T16:40:50.157Z,0.60
2019-05-09T16:43:18.767Z,0.70
2019-05-09T16:45:47.772Z,0.70
2019-05-09T16:48:18.507Z,0.60
2019-05-09T16:50:57.662Z,0.40
2019-05-09T16:53:18.642Z,0.50
2019-05-09T16:55:47.248Z,0.60
2019-05-09T16:58:18.583Z,0.53
2019-05-09T17:00:51.290Z,0.70
2019-05-09T17:03:19.821Z,0.50
2019-05-09T17:05:48.392Z,0.53
2019-05-09T17:08:17.783Z,0.50
2019-05-09T17:10:48.645Z,0.50
2019-05-09T17:13:18.449Z,0.67
2019-05-09T17:15:46.943Z,0.60
2019-05-09T17:18:15.455Z,0.50
2019-05-09T17:20:51.126Z,0.53
2019-05-09T17:23:24.043Z,0.50
2019-05-09T17:25:52.497Z,0.40
2019-05-09T17:28:21.021Z,0.50
2019-05-09T17:30:49.567Z,0.50
2019-05-09T17:33:18.203Z,0.50
2019-05-09T17:35:48.261Z,0.50
2019-05-09T17:38:18.033Z,0.50
2019-05-09T17:40:48.495Z,0.60
2019-05-09T17:43:18.277Z,0.57
2019-05-09T17:45:47.809Z,0.50
2019-05-09T17:48:18.376Z,0.70
2019-05-09T17:50:46.769Z,0.80
2019-05-09T17:53:15.214Z,0.50
2019-05-09T17:55:43.754Z,0.50
2019-05-09T17:58:26.170Z,0.67
2019-05-09T18:00:42.376Z,0.50
2019-05-09T18:03:10.840Z,0.67
2019-05-09T18:05:39.299Z,0.70
2019-05-09T18:08:08.192Z,1.07
2019-05-09T18:10:38.063Z,0.60
2019-05-09T18:13:08.016Z,0.70
2019-05-09T18:15:37.799Z,0.70
2019-05-09T18:18:06.540Z,0.60
2019-05-09T18:20:37.699Z,2.10
2019-05-09T18:23:05.352Z,1.53
2019-05-09T18:25:33.784Z,2.37
2019-05-09T18:28:02.236Z,3.97
2019-05-09T18:30:30.749Z,29.50
2019-05-09T18:33:03.320Z,22.83
2019-05-09T18:35:33.002Z,3.17
2019-05-09T18:38:01.895Z,1.00
2019-05-09T18:40:30.337Z,1.23
2019-05-09T18:42:58.784Z,1.13
2019-05-09T18:45:28.294Z,1.00
2019-05-09T18:47:57.990Z,1.00
2019-05-09T18:50:26.837Z,1.03
2019-05-09T18:52:55.427Z,1.00
2019-05-09T18:55:23.862Z,1.07
2019-05-09T18:57:52.309Z,1.00
2019-05-09T19:00:21.602Z,0.97
2019-05-09T19:02:50.353Z,1.20
2019-05-09T19:05:20.119Z,0.93
2019-05-09T19:07:48.595Z,1.00
2019-05-09T19:10:18.122Z,1.00
2019-05-09T19:12:46.857Z,1.10
2019-05-09T19:15:35.356Z,0.80
2019-05-09T19:18:08.199Z,0.93
2019-05-09T19:20:41.010Z,0.80
2019-05-09T19:23:09.462Z,1.53
2019-05-09T19:25:37.983Z,1.00
2019-05-09T19:28:06.445Z,1.00
2019-05-09T19:30:34.884Z,1.27
2019-05-09T19:33:03.476Z,1.60
2019-05-09T19:35:31.919Z,1.40
2019-05-09T19:38:00.390Z,1.50
2019-05-09T19:40:28.841Z,4.27
2019-05-09T19:42:57.279Z,2.23
2019-05-09T19:45:25.940Z,1.93
2019-05-09T19:47:54.411Z,1.80
2019-05-09T19:50:22.931Z,2.00
2019-05-09T19:52:51.366Z,1.90
2019-05-09T19:55:19.823Z,2.03
2019-05-09T19:57:48.275Z,1.83
2019-05-09T20:00:17.143Z,2.00
2019-05-09T20:02:45.623Z,1.97
2019-05-09T20:05:14.410Z,2.50
2019-05-09T20:07:42.899Z,2.07
2019-05-09T20:10:13.329Z,2.53
2019-05-09T20:12:49.235Z,2.80
2019-05-09T20:15:22.446Z,2.40
2019-05-09T20:17:50.924Z,2.73
2019-05-09T20:20:19.462Z,2.87
2019-05-09T20:22:52.887Z,2.93
2019-05-09T20:25:18.139Z,2.97
2019-05-09T20:27:46.586Z,3.93
2019-05-09T20:30:15.290Z,3.63
2019-05-09T20:32:43.771Z,3.30
2019-05-09T20:35:12.375Z,3.73
2019-05-09T20:37:41.017Z,3.77
2019-05-09T20:40:09.776Z,3.80
2019-05-09T20:42:38.429Z,3.10
2019-05-09T20:45:07.221Z,3.77
2019-05-09T20:47:35.902Z,3.93
2019-05-09T20:50:06.511Z,3.40
2019-05-09T20:52:35.158Z,4.53
2019-05-09T20:55:05.210Z,3.80
2019-05-09T20:57:33.887Z,4.50
2019-05-09T21:00:02.591Z,4.00
2019-05-09T21:02:31.450Z,4.13
2019-05-09T21:05:00.269Z,3.50
2019-05-09T21:07:29.191Z,4.43
2019-05-09T21:09:57.902Z,5.37
2019-05-09T21:12:26.696Z,4.80
2019-05-09T21:14:55.389Z,5.37
2019-05-09T21:17:24.173Z,5.20
2019-05-09T21:19:52.824Z,6.40
2019-05-09T21:22:21.548Z,5.77
2019-05-09T21:24:50.344Z,6.20
2019-05-09T21:27:19.120Z,7.07
2019-05-09T21:29:47.776Z,6.80
2019-05-09T21:32:16.524Z,7.80
2019-05-09T21:34:45.131Z,8.30
2019-05-09T21:37:14.088Z,9.40
2019-05-09T21:39:42.768Z,9.57
2019-05-09T21:42:11.301Z,8.93
2019-05-09T21:44:39.826Z,8.20
2019-05-09T21:47:08.457Z,6.80
2019-05-09T21:49:36.982Z,5.97
2019-05-09T21:52:05.471Z,4.77
2019-05-09T21:54:33.987Z,3.63
2019-05-09T21:57:02.433Z,3.43
2019-05-09T21:59:30.900Z,2.93
2019-05-09T22:01:59.415Z,2.00
2019-05-09T22:04:27.927Z,1.90
2019-05-09T22:06:56.405Z,1.93
2019-05-09T22:09:24.858Z,2.23
2019-05-09T22:11:53.367Z,2.33
2019-05-09T22:14:21.819Z,1.83
2019-05-09T22:16:50.246Z,2.87
2019-05-09T22:19:18.691Z,2.50
2019-05-09T22:21:47.123Z,2.10
2019-05-09T22:24:15.565Z,2.40
2019-05-09T22:26:44.001Z,1.87
2019-05-09T22:29:12.450Z,2.30
2019-05-09T22:31:40.947Z,2.13
2019-05-09T22:34:09.399Z,2.57
2019-05-09T22:36:37.839Z,2.70
2019-05-09T22:39:07.687Z,2.80
2019-05-09T22:41:36.130Z,3.00
2019-05-09T22:44:04.564Z,3.47
2019-05-09T22:46:33.243Z,4.00
2019-05-09T22:49:01.941Z,5.80
2019-05-09T22:51:30.458Z,5.10
2019-05-09T22:54:11.455Z,5.57
2019-05-09T22:56:29.057Z,7.23
2019-05-09T22:58:57.512Z,7.80
2019-05-09T23:01:25.950Z,7.37
2019-05-09T23:03:54.389Z,8.10
2019-05-09T23:06:22.846Z,9.37
2019-05-09T23:08:51.303Z,9.20
2019-05-09T23:11:19.980Z,10.50
2019-05-09T23:13:54.137Z,10.10
2019-05-09T23:16:27.497Z,9.40
2019-05-09T23:18:56.019Z,10.70
2019-05-09T23:21:26.355Z,11.10
2019-05-09T23:24:01.871Z,11.57
2019-05-09T23:26:30.387Z,12.30
2019-05-09T23:28:58.915Z,13.13
2019-05-09T23:31:34.658Z,13.80
2019-05-09T23:34:03.110Z,14.17
2019-05-09T23:36:31.551Z,14.57
2019-05-09T23:39:10.070Z,14.07
2019-05-09T23:41:38.661Z,15.47
2019-05-09T23:44:07.103Z,16.50
2019-05-09T23:46:35.534Z,15.10
2019-05-09T23:49:04.002Z,14.70
2019-05-09T23:51:45.867Z,17.00
2019-05-09T23:54:45.231Z,17.80
2019-05-09T23:57:21.888Z,15.60
